createdAt,value
2018-08-04T00:00:51.070Z,9.23
2018-08-04T00:01:54.458Z,9.13
2018-08-04T00:02:57.940Z,9.27
2018-08-04T00:04:07.778Z,9.17
2018-08-04T00:05:11.475Z,9.13
2018-08-04T00:06:14.864Z,9.97
2018-08-04T00:07:18.177Z,9.07
2018-08-04T00:08:21.536Z,9.40
2018-08-04T00:09:24.863Z,10.00
2018-08-04T00:10:28.179Z,9.33
2018-08-04T00:11:31.558Z,9.70
2018-08-04T00:12:34.914Z,8.43
2018-08-04T00:13:38.286Z,8.83
2018-08-04T00:14:41.592Z,8.63
2018-08-04T00:15:44.943Z,9.47
2018-08-04T00:16:48.463Z,8.83
2018-08-04T00:17:51.783Z,8.63
2018-08-04T00:18:55.187Z,9.10
2018-08-04T00:19:58.499Z,9.90
2018-08-04T00:21:01.812Z,9.23
2018-08-04T00:22:05.149Z,10.00
2018-08-04T00:23:08.486Z,9.80
2018-08-04T00:24:11.879Z,9.97
2018-08-04T00:25:15.238Z,9.17
2018-08-04T00:26:18.570Z,10.37
2018-08-04T00:27:21.903Z,9.40
2018-08-04T00:28:25.259Z,10.27
2018-08-04T00:29:28.664Z,10.03
2018-08-04T00:30:31.975Z,9.60
2018-08-04T00:31:35.325Z,10.53
2018-08-04T00:32:38.682Z,8.90
2018-08-04T00:33:42.016Z,9.40
2018-08-04T00:34:45.395Z,10.63
2018-08-04T00:35:48.792Z,10.50
2018-08-04T00:36:52.155Z,9.47
2018-08-04T00:37:55.482Z,9.30
2018-08-04T00:38:58.810Z,9.97
2018-08-04T00:40:02.129Z,10.30
2018-08-04T00:41:05.628Z,9.47
2018-08-04T00:42:09.015Z,9.63
2018-08-04T00:43:12.353Z,10.27
2018-08-04T00:44:15.695Z,10.03
2018-08-04T00:45:19.023Z,10.77
2018-08-04T00:46:25.298Z,9.43
2018-08-04T00:47:28.675Z,9.90
2018-08-04T00:48:32.006Z,11.33
2018-08-04T00:49:35.347Z,9.67
2018-08-04T00:50:38.695Z,9.57
2018-08-04T00:51:42.013Z,9.83
2018-08-04T00:52:45.368Z,9.90
2018-08-04T00:53:48.691Z,10.03
2018-08-04T00:54:52.026Z,10.80
2018-08-04T00:55:55.380Z,10.23
2018-08-04T00:56:58.960Z,9.73
2018-08-04T00:58:02.324Z,11.67
2018-08-04T00:59:05.716Z,11.17
2018-08-04T01:00:09.056Z,9.90
2018-08-04T01:01:12.380Z,10.30
2018-08-04T01:02:15.694Z,10.50
2018-08-04T01:03:19.007Z,9.93
2018-08-04T01:04:28.722Z,10.40
2018-08-04T01:05:32.023Z,10.10
2018-08-04T01:06:35.339Z,10.87
2018-08-04T01:07:38.650Z,10.03
2018-08-04T01:08:41.977Z,11.00
2018-08-04T01:09:45.360Z,10.30
2018-08-04T01:10:48.667Z,10.70
2018-08-04T01:11:52.019Z,10.50
2018-08-04T01:12:55.326Z,10.97
2018-08-04T01:13:58.675Z,10.43
2018-08-04T01:15:02.239Z,10.47
2018-08-04T01:16:05.676Z,9.90
2018-08-04T01:17:09.046Z,10.47
2018-08-04T01:18:12.376Z,10.20
2018-08-04T01:19:15.694Z,10.30
2018-08-04T01:20:19.063Z,10.50
2018-08-04T01:21:22.392Z,10.73
2018-08-04T01:22:25.743Z,9.87
2018-08-04T01:23:29.092Z,11.50
2018-08-04T01:24:32.398Z,9.47
2018-08-04T01:25:35.715Z,10.20
2018-08-04T01:26:39.039Z,10.97
2018-08-04T01:27:42.401Z,10.70
2018-08-04T01:28:45.714Z,9.97
2018-08-04T01:29:49.042Z,10.50
2018-08-04T01:30:52.352Z,10.20
2018-08-04T01:31:55.407Z,10.20
2018-08-04T01:32:58.779Z,10.27
2018-08-04T01:34:02.110Z,11.00
2018-08-04T01:35:05.556Z,10.60
2018-08-04T01:36:08.903Z,10.00
2018-08-04T01:37:12.230Z,9.87
2018-08-04T01:38:15.609Z,11.23
2018-08-04T01:39:19.010Z,10.30
2018-08-04T01:40:22.334Z,10.07
2018-08-04T01:41:25.654Z,10.50
2018-08-04T01:42:28.966Z,11.20
2018-08-04T01:43:32.329Z,10.40
2018-08-04T01:44:35.658Z,10.50
2018-08-04T01:45:38.962Z,10.00
2018-08-04T01:46:42.309Z,10.50
2018-08-04T01:47:45.627Z,10.10
2018-08-04T01:48:48.989Z,9.80
2018-08-04T01:49:52.316Z,10.60
2018-08-04T01:50:55.649Z,10.70
2018-08-04T01:51:58.698Z,10.80
2018-08-04T01:53:02.042Z,9.93
2018-08-04T01:54:05.446Z,10.33
2018-08-04T01:55:08.761Z,10.60
2018-08-04T01:56:12.081Z,11.17
2018-08-04T01:57:15.394Z,10.60
2018-08-04T01:58:18.742Z,10.30
2018-08-04T01:59:28.601Z,11.07
2018-08-04T02:00:31.931Z,11.00
2018-08-04T02:01:35.264Z,10.80
2018-08-04T02:02:38.814Z,11.37
2018-08-04T02:03:42.164Z,9.80
2018-08-04T02:04:45.486Z,10.97
2018-08-04T02:05:48.794Z,11.90
2018-08-04T02:06:52.155Z,10.30
2018-08-04T02:07:55.506Z,11.43
2018-08-04T02:08:58.818Z,11.97
2018-08-04T02:10:02.135Z,10.73
2018-08-04T02:11:05.483Z,11.30
2018-08-04T02:12:08.839Z,12.57
2018-08-04T02:13:12.190Z,11.10
2018-08-04T02:14:15.514Z,11.17
2018-08-04T02:15:18.854Z,11.30
2018-08-04T02:16:22.231Z,11.90
2018-08-04T02:17:25.658Z,12.07
2018-08-04T02:18:28.982Z,11.70
2018-08-04T02:19:32.354Z,11.83
2018-08-04T02:20:35.709Z,9.53
2018-08-04T02:21:39.035Z,12.23
2018-08-04T02:22:42.398Z,11.60
2018-08-04T02:23:45.743Z,10.97
2018-08-04T02:24:49.061Z,11.43
2018-08-04T02:25:52.379Z,11.93
2018-08-04T02:26:55.730Z,11.50
2018-08-04T02:27:59.095Z,12.20
2018-08-04T02:29:02.418Z,12.57
2018-08-04T02:30:05.844Z,13.17
2018-08-04T02:31:09.182Z,12.10
2018-08-04T02:32:12.554Z,11.30
2018-08-04T02:33:15.888Z,13.40
2018-08-04T02:34:18.950Z,11.67
2018-08-04T02:35:22.302Z,11.90
2018-08-04T02:36:25.631Z,11.50
2018-08-04T02:37:28.968Z,12.50
2018-08-04T02:38:32.295Z,12.70
2018-08-04T02:39:35.623Z,11.90
2018-08-04T02:40:38.997Z,13.07
2018-08-04T02:41:42.335Z,12.13
2018-08-04T02:42:45.701Z,12.10
2018-08-04T02:43:49.035Z,12.90
2018-08-04T02:44:52.371Z,12.80
2018-08-04T02:45:55.702Z,12.73
2018-08-04T02:46:59.053Z,11.87
2018-08-04T02:48:02.436Z,12.20
2018-08-04T02:49:06.136Z,11.87
2018-08-04T02:50:09.706Z,12.60
2018-08-04T02:51:13.092Z,11.60
2018-08-04T02:52:16.414Z,12.40
2018-08-04T02:53:19.723Z,12.00
2018-08-04T02:54:23.051Z,13.00
2018-08-04T02:55:26.387Z,12.70
2018-08-04T02:56:29.731Z,12.87
2018-08-04T02:57:33.184Z,12.50
2018-08-04T02:58:36.501Z,13.20
2018-08-04T02:59:39.826Z,11.83
2018-08-04T03:00:43.186Z,12.93
2018-08-04T03:01:46.510Z,11.73
2018-08-04T03:02:49.846Z,12.17
2018-08-04T03:03:53.183Z,11.47
2018-08-04T03:04:56.504Z,12.00
2018-08-04T03:05:59.954Z,12.60
2018-08-04T03:07:03.302Z,12.33
2018-08-04T03:08:06.637Z,12.63
2018-08-04T03:09:11.723Z,11.80
2018-08-04T03:10:15.027Z,12.97
2018-08-04T03:11:18.374Z,12.33
2018-08-04T03:12:21.759Z,12.33
2018-08-04T03:13:25.091Z,12.10
2018-08-04T03:14:28.451Z,11.50
2018-08-04T03:15:31.826Z,12.30
2018-08-04T03:16:35.153Z,12.17
2018-08-04T03:17:38.492Z,13.00
2018-08-04T03:18:41.799Z,12.70
2018-08-04T03:19:45.119Z,13.50
2018-08-04T03:20:48.491Z,12.97
2018-08-04T03:21:51.821Z,12.97
2018-08-04T03:22:55.187Z,12.20
2018-08-04T03:23:58.556Z,12.37
2018-08-04T03:25:04.934Z,11.90
2018-08-04T03:26:08.255Z,12.37
2018-08-04T03:27:11.598Z,13.13
2018-08-04T03:28:14.975Z,13.07
2018-08-04T03:29:18.292Z,13.63
2018-08-04T03:30:21.611Z,14.00
2018-08-04T03:31:24.946Z,12.60
2018-08-04T03:32:28.282Z,13.50
2018-08-04T03:33:31.642Z,14.10
2018-08-04T03:34:34.987Z,12.67
2018-08-04T03:35:38.305Z,14.20
2018-08-04T03:36:41.629Z,12.80
2018-08-04T03:37:44.959Z,13.00
2018-08-04T03:38:48.323Z,13.37
2018-08-04T03:39:51.655Z,13.73
2018-08-04T03:40:55.006Z,11.70
2018-08-04T03:41:58.331Z,12.73
2018-08-04T03:43:01.669Z,13.43
2018-08-04T03:44:05.042Z,13.37
2018-08-04T03:45:08.371Z,12.30
2018-08-04T03:46:11.686Z,12.80
2018-08-04T03:47:14.994Z,12.77
2018-08-04T03:48:18.337Z,13.40
2018-08-04T03:49:21.706Z,12.90
2018-08-04T03:50:25.035Z,14.20
2018-08-04T03:51:28.348Z,13.27
2018-08-04T03:52:31.672Z,12.70
2018-08-04T03:53:35.030Z,13.07
2018-08-04T03:54:38.410Z,12.40
2018-08-04T03:55:41.737Z,12.77
2018-08-04T03:56:45.047Z,12.43
2018-08-04T03:57:48.435Z,13.47
2018-08-04T03:58:51.769Z,12.50
2018-08-04T03:59:55.162Z,13.30
2018-08-04T04:00:58.497Z,12.87
2018-08-04T04:02:01.867Z,12.33
2018-08-04T04:03:05.336Z,12.80
2018-08-04T04:04:08.526Z,13.53
2018-08-04T04:05:11.646Z,12.00
2018-08-04T04:06:14.987Z,12.00
2018-08-04T04:07:18.302Z,12.70
2018-08-04T04:08:21.634Z,13.47
2018-08-04T04:09:24.964Z,13.60
2018-08-04T04:10:28.338Z,13.77
2018-08-04T04:11:31.711Z,12.23
2018-08-04T04:12:34.802Z,12.87
2018-08-04T04:13:38.146Z,13.97
2018-08-04T04:14:41.567Z,12.70
2018-08-04T04:15:44.895Z,13.63
2018-08-04T04:16:48.252Z,12.90
2018-08-04T04:17:51.567Z,12.50
2018-08-04T04:18:54.938Z,13.67
2018-08-04T04:19:58.282Z,13.53
2018-08-04T04:21:01.614Z,12.60
2018-08-04T04:22:04.978Z,12.00
2018-08-04T04:23:08.319Z,12.53
2018-08-04T04:24:11.667Z,13.47
2018-08-04T04:25:15.006Z,12.70
2018-08-04T04:26:18.358Z,12.90
2018-08-04T04:27:21.672Z,12.37
2018-08-04T04:28:24.996Z,12.93
2018-08-04T04:29:28.319Z,12.70
2018-08-04T04:30:31.682Z,12.73
2018-08-04T04:31:34.997Z,14.00
2018-08-04T04:32:38.322Z,12.93
2018-08-04T04:33:41.647Z,12.37
2018-08-04T04:34:44.955Z,12.77
2018-08-04T04:35:48.321Z,12.60
2018-08-04T04:36:51.719Z,12.40
2018-08-04T04:37:55.062Z,12.93
2018-08-04T04:38:58.383Z,14.00
2018-08-04T04:40:01.992Z,12.67
2018-08-04T04:41:05.367Z,13.20
2018-08-04T04:42:08.694Z,12.77
2018-08-04T04:43:11.999Z,13.00
2018-08-04T04:44:15.315Z,12.53
2018-08-04T04:45:18.656Z,13.10
2018-08-04T04:46:21.996Z,12.90
2018-08-04T04:47:25.310Z,13.30
2018-08-04T04:48:28.696Z,12.57
2018-08-04T04:49:31.979Z,13.80
2018-08-04T04:50:35.342Z,14.23
2018-08-04T04:51:39.260Z,13.27
2018-08-04T04:52:42.578Z,13.43
2018-08-04T04:53:45.932Z,14.00
2018-08-04T04:54:49.391Z,11.63
2018-08-04T04:55:52.727Z,11.60
2018-08-04T04:56:56.043Z,13.83
2018-08-04T04:57:59.388Z,12.70
2018-08-04T04:59:02.698Z,14.60
2018-08-04T05:00:06.251Z,11.70
2018-08-04T05:01:09.650Z,13.80
2018-08-04T05:02:12.968Z,13.20
2018-08-04T05:03:16.329Z,12.73
2018-08-04T05:04:19.655Z,13.40
2018-08-04T05:05:22.991Z,12.80
2018-08-04T05:06:26.342Z,12.80
2018-08-04T05:07:29.661Z,14.00
2018-08-04T05:08:32.972Z,12.37
2018-08-04T05:09:36.329Z,13.07
2018-08-04T05:10:39.635Z,13.07
2018-08-04T05:11:43.003Z,12.67
2018-08-04T05:12:46.312Z,11.70
2018-08-04T05:13:49.685Z,12.20
2018-08-04T05:14:53.033Z,11.97
2018-08-04T05:15:56.379Z,11.97
2018-08-04T05:16:59.711Z,12.87
2018-08-04T05:18:03.119Z,11.90
2018-08-04T05:19:06.460Z,13.17
2018-08-04T05:20:09.823Z,13.43
2018-08-04T05:21:13.142Z,11.20
2018-08-04T05:22:16.487Z,10.77
2018-08-04T05:23:19.795Z,11.70
2018-08-04T05:24:23.113Z,11.60
2018-08-04T05:25:26.448Z,11.73
2018-08-04T05:26:29.804Z,11.13
2018-08-04T05:27:33.120Z,11.80
2018-08-04T05:28:36.503Z,10.73
2018-08-04T05:29:39.829Z,10.30
2018-08-04T05:30:43.156Z,10.33
2018-08-04T05:31:46.504Z,10.07
2018-08-04T05:32:49.824Z,10.10
2018-08-04T05:33:53.531Z,9.90
2018-08-04T05:34:56.841Z,10.63
2018-08-04T05:36:00.160Z,10.13
2018-08-04T05:37:03.515Z,9.10
2018-08-04T05:38:06.577Z,9.47
2018-08-04T05:39:11.597Z,10.63
2018-08-04T05:40:14.950Z,10.40
2018-08-04T05:41:18.299Z,9.73
2018-08-04T05:42:21.670Z,9.43
2018-08-04T05:43:25.096Z,9.80
2018-08-04T05:44:28.423Z,9.93
2018-08-04T05:45:31.738Z,9.50
2018-08-04T05:46:35.059Z,10.50
2018-08-04T05:47:38.779Z,8.23
2018-08-04T05:48:42.074Z,7.63
2018-08-04T05:49:45.531Z,9.53
2018-08-04T05:50:48.919Z,8.00
2018-08-04T05:51:52.359Z,8.40
2018-08-04T05:52:55.783Z,7.30
2018-08-04T05:53:59.151Z,7.40
2018-08-04T05:55:02.533Z,7.60
2018-08-04T05:56:06.002Z,7.50
2018-08-04T05:57:09.333Z,6.10
2018-08-04T05:58:12.687Z,7.43
2018-08-04T05:59:15.999Z,7.10
2018-08-04T06:00:19.332Z,7.23
2018-08-04T06:01:22.663Z,6.60
2018-08-04T06:02:26.002Z,6.53
2018-08-04T06:03:29.318Z,6.80
2018-08-04T06:04:32.627Z,6.80
2018-08-04T06:05:35.951Z,7.63
2018-08-04T06:06:39.299Z,7.10
2018-08-04T06:07:42.632Z,6.10
2018-08-04T06:08:45.957Z,5.70
2018-08-04T06:09:49.355Z,5.43
2018-08-04T06:10:52.671Z,5.80
2018-08-04T06:11:56.017Z,5.63
2018-08-04T06:12:59.333Z,6.50
2018-08-04T06:14:02.646Z,5.43
2018-08-04T06:15:06.106Z,5.93
2018-08-04T06:16:09.663Z,5.43
2018-08-04T06:17:12.958Z,5.47
2018-08-04T06:18:16.298Z,5.60
2018-08-04T06:19:19.610Z,5.73
2018-08-04T06:20:23.047Z,6.13
2018-08-04T06:21:26.371Z,6.00
2018-08-04T06:22:29.687Z,5.40
2018-08-04T06:23:33.006Z,6.27
2018-08-04T06:24:36.311Z,5.40
2018-08-04T06:25:39.654Z,6.00
2018-08-04T06:26:43.031Z,5.33
2018-08-04T06:27:46.382Z,5.40
2018-08-04T06:28:49.713Z,5.27
2018-08-04T06:29:53.082Z,5.33
2018-08-04T06:30:56.424Z,5.30
2018-08-04T06:31:59.742Z,5.53
2018-08-04T06:33:03.112Z,6.27
2018-08-04T06:34:06.725Z,5.23
2018-08-04T06:35:10.078Z,5.43
2018-08-04T06:36:13.399Z,5.10
2018-08-04T06:37:16.744Z,5.10
2018-08-04T06:38:20.112Z,5.13
2018-08-04T06:39:23.432Z,5.10
2018-08-04T06:40:26.769Z,4.70
2018-08-04T06:41:30.137Z,5.10
2018-08-04T06:42:33.451Z,5.63
2018-08-04T06:43:36.823Z,4.40
2018-08-04T06:44:40.130Z,5.23
2018-08-04T06:45:43.487Z,5.80
2018-08-04T06:46:46.806Z,5.30
2018-08-04T06:47:50.148Z,4.80
2018-08-04T06:48:53.593Z,5.73
2018-08-04T06:49:56.904Z,5.80
2018-08-04T06:51:00.250Z,5.63
2018-08-04T06:52:03.592Z,5.00
2018-08-04T06:53:06.946Z,5.53
2018-08-04T06:54:10.668Z,5.83
2018-08-04T06:55:14.008Z,4.90
2018-08-04T06:56:17.337Z,5.60
2018-08-04T06:57:20.674Z,5.07
2018-08-04T06:58:24.021Z,5.90
2018-08-04T06:59:27.903Z,5.40
2018-08-04T07:00:31.282Z,5.80
2018-08-04T07:01:34.611Z,5.60
2018-08-04T07:02:37.922Z,6.07
2018-08-04T07:03:41.267Z,5.63
2018-08-04T07:04:44.751Z,5.30
2018-08-04T07:05:48.116Z,4.83
2018-08-04T07:06:51.452Z,4.87
2018-08-04T07:07:54.803Z,5.43
2018-08-04T07:08:58.161Z,5.40
2018-08-04T07:10:01.489Z,5.47
2018-08-04T07:11:04.802Z,6.00
2018-08-04T07:12:08.140Z,5.77
2018-08-04T07:13:11.512Z,4.97
2018-08-04T07:14:14.842Z,4.97
2018-08-04T07:15:18.208Z,5.00
2018-08-04T07:16:21.565Z,5.70
2018-08-04T07:17:24.862Z,6.20
2018-08-04T07:18:28.190Z,4.73
2018-08-04T07:19:31.519Z,5.10
2018-08-04T07:20:34.882Z,5.40
2018-08-04T07:21:38.193Z,5.63
2018-08-04T07:22:41.540Z,5.70
2018-08-04T07:23:44.898Z,5.27
2018-08-04T07:24:48.214Z,5.50
2018-08-04T07:25:51.522Z,5.70
2018-08-04T07:26:54.883Z,5.43
2018-08-04T07:27:58.205Z,5.73
2018-08-04T07:29:01.580Z,5.27
2018-08-04T07:30:10.346Z,5.90
2018-08-04T07:31:13.659Z,5.10
2018-08-04T07:32:17.026Z,4.93
2018-08-04T07:33:20.362Z,5.67
2018-08-04T07:34:23.947Z,5.50
2018-08-04T07:35:27.207Z,5.73
2018-08-04T07:36:30.595Z,5.70
2018-08-04T07:37:33.898Z,5.40
2018-08-04T07:38:37.207Z,6.03
2018-08-04T07:39:40.510Z,5.20
2018-08-04T07:40:43.858Z,5.10
2018-08-04T07:41:47.292Z,5.20
2018-08-04T07:42:50.590Z,5.40
2018-08-04T07:43:53.908Z,5.30
2018-08-04T07:44:57.223Z,5.00
2018-08-04T07:46:00.581Z,4.50
2018-08-04T07:47:03.939Z,4.47
2018-08-04T07:48:07.252Z,4.40
2018-08-04T07:49:10.616Z,4.97
2018-08-04T07:50:13.890Z,4.40
2018-08-04T07:51:17.233Z,4.73
2018-08-04T07:52:20.312Z,4.83
2018-08-04T07:53:23.362Z,4.93
2018-08-04T07:54:26.663Z,5.37
2018-08-04T07:55:29.858Z,4.70
2018-08-04T07:56:33.158Z,4.50
2018-08-04T07:57:36.454Z,4.90
2018-08-04T07:58:39.771Z,4.57
2018-08-04T07:59:43.087Z,5.40
2018-08-04T08:00:46.440Z,4.90
2018-08-04T08:01:49.743Z,4.60
2018-08-04T08:02:53.046Z,5.50
2018-08-04T08:03:56.402Z,5.10
2018-08-04T08:04:59.751Z,5.20
2018-08-04T08:06:03.107Z,5.07
2018-08-04T08:07:06.466Z,5.20
2018-08-04T08:08:09.775Z,5.30
2018-08-04T08:09:13.107Z,5.37
2018-08-04T08:10:16.438Z,4.90
2018-08-04T08:11:19.904Z,5.00
2018-08-04T08:12:23.487Z,4.80
2018-08-04T08:13:26.826Z,5.10
2018-08-04T08:14:30.175Z,4.67
2018-08-04T08:15:33.507Z,4.80
2018-08-04T08:16:36.919Z,5.03
2018-08-04T08:17:40.222Z,4.70
2018-08-04T08:18:43.558Z,4.63
2018-08-04T08:19:47.013Z,4.73
2018-08-04T08:20:50.312Z,4.50
2018-08-04T08:21:53.637Z,5.30
2018-08-04T08:22:56.999Z,5.40
2018-08-04T08:24:00.351Z,5.33
2018-08-04T08:25:03.978Z,5.17
2018-08-04T08:26:10.167Z,5.43
2018-08-04T08:27:13.541Z,5.63
2018-08-04T08:28:16.859Z,5.83
2018-08-04T08:29:19.935Z,5.40
2018-08-04T08:30:22.994Z,5.50
2018-08-04T08:31:26.370Z,4.70
2018-08-04T08:32:32.600Z,5.40
2018-08-04T08:33:36.323Z,5.27
2018-08-04T08:34:39.630Z,5.37
2018-08-04T08:35:42.950Z,5.43
2018-08-04T08:36:46.268Z,5.30
2018-08-04T08:37:49.870Z,5.00
2018-08-04T08:38:53.175Z,5.20
2018-08-04T08:39:56.576Z,5.40
2018-08-04T08:41:00.364Z,5.30
2018-08-04T08:42:03.726Z,5.43
2018-08-04T08:43:07.208Z,6.00
2018-08-04T08:44:10.542Z,4.93
2018-08-04T08:45:13.871Z,5.90
2018-08-04T08:46:17.295Z,5.87
2018-08-04T08:47:20.671Z,6.20
2018-08-04T08:48:24.107Z,6.67
2018-08-04T08:49:27.465Z,6.40
2018-08-04T08:50:30.813Z,6.47
2018-08-04T08:51:34.161Z,6.20
2018-08-04T08:52:37.647Z,5.93
2018-08-04T08:53:41.001Z,6.03
2018-08-04T08:54:44.591Z,5.93
2018-08-04T08:55:47.903Z,5.97
2018-08-04T08:56:51.267Z,5.67
2018-08-04T08:57:54.609Z,5.63
2018-08-04T08:58:57.977Z,5.67
2018-08-04T09:00:01.341Z,5.70
2018-08-04T09:01:04.712Z,5.27
2018-08-04T09:02:08.103Z,5.87
2018-08-04T09:03:11.475Z,6.10
2018-08-04T09:04:14.792Z,6.20
2018-08-04T09:05:18.103Z,4.83
2018-08-04T09:06:21.438Z,5.50
2018-08-04T09:07:24.776Z,5.70
2018-08-04T09:08:28.132Z,5.53
2018-08-04T09:09:31.480Z,6.10
2018-08-04T09:10:34.803Z,5.20
2018-08-04T09:11:38.262Z,4.70
2018-08-04T09:12:42.108Z,5.63
2018-08-04T09:13:45.467Z,5.97
2018-08-04T09:14:48.827Z,6.57
2018-08-04T09:15:52.147Z,6.47
2018-08-04T09:16:55.474Z,5.30
2018-08-04T09:17:58.954Z,5.50
2018-08-04T09:19:02.275Z,5.50
2018-08-04T09:20:06.799Z,5.10
2018-08-04T09:21:10.158Z,5.93
2018-08-04T09:22:13.491Z,5.90
2018-08-04T09:23:16.869Z,5.50
2018-08-04T09:24:20.249Z,5.23
2018-08-04T09:25:23.577Z,5.13
2018-08-04T09:26:26.899Z,5.30
2018-08-04T09:27:30.224Z,5.70
2018-08-04T09:28:33.568Z,6.60
2018-08-04T09:29:36.901Z,8.07
2018-08-04T09:30:40.226Z,6.17
2018-08-04T09:31:43.639Z,5.63
2018-08-04T09:32:46.933Z,6.30
2018-08-04T09:33:50.278Z,6.13
2018-08-04T09:34:53.597Z,6.00
2018-08-04T09:35:56.937Z,5.53
2018-08-04T09:37:00.305Z,6.30
2018-08-04T09:38:03.663Z,5.77
2018-08-04T09:39:10.100Z,5.53
2018-08-04T09:40:14.550Z,5.87
2018-08-04T09:41:17.897Z,5.80
2018-08-04T09:42:21.206Z,5.73
2018-08-04T09:43:24.566Z,5.07
2018-08-04T09:44:27.984Z,5.30
2018-08-04T09:45:31.313Z,5.50
2018-08-04T09:46:34.618Z,5.60
2018-08-04T09:47:38.658Z,6.20
2018-08-04T09:48:41.979Z,5.10
2018-08-04T09:49:45.335Z,4.80
2018-08-04T09:50:48.667Z,5.20
2018-08-04T09:51:52.071Z,5.33
2018-08-04T09:52:55.435Z,5.13
2018-08-04T09:53:58.792Z,4.57
2018-08-04T09:55:02.294Z,4.77
2018-08-04T09:56:05.414Z,5.57
2018-08-04T09:57:08.832Z,5.10
2018-08-04T09:58:12.157Z,5.53
2018-08-04T09:59:15.459Z,5.07
2018-08-04T10:00:24.054Z,4.97
2018-08-04T10:01:32.887Z,5.57
2018-08-04T10:02:36.480Z,5.70
2018-08-04T10:03:40.715Z,4.87
2018-08-04T10:04:44.044Z,5.00
2018-08-04T10:05:47.364Z,5.30
2018-08-04T10:06:50.755Z,5.43
2018-08-04T10:07:54.085Z,5.53
2018-08-04T10:08:57.420Z,4.90
2018-08-04T10:10:00.847Z,5.20
2018-08-04T10:11:04.193Z,5.60
2018-08-04T10:12:08.589Z,5.23
2018-08-04T10:13:11.910Z,4.77
2018-08-04T10:14:15.226Z,5.80
2018-08-04T10:15:18.574Z,5.33
2018-08-04T10:16:21.885Z,5.63
2018-08-04T10:17:25.194Z,4.80
2018-08-04T10:18:28.510Z,5.20
2018-08-04T10:19:31.823Z,5.17
2018-08-04T10:20:35.160Z,5.00
2018-08-04T10:21:38.474Z,5.13
2018-08-04T10:22:41.779Z,4.70
2018-08-04T10:23:45.120Z,5.70
2018-08-04T10:24:48.487Z,4.70
2018-08-04T10:25:51.935Z,5.10
2018-08-04T10:26:55.317Z,4.80
2018-08-04T10:27:58.659Z,4.40
2018-08-04T10:29:01.985Z,5.47
2018-08-04T10:30:07.855Z,4.77
2018-08-04T10:31:11.176Z,4.70
2018-08-04T10:32:14.653Z,4.57
2018-08-04T10:33:17.939Z,4.87
2018-08-04T10:34:21.367Z,5.03
2018-08-04T10:35:24.681Z,5.50
2018-08-04T10:36:28.036Z,5.57
2018-08-04T10:37:31.388Z,5.50
2018-08-04T10:38:34.791Z,5.47
2018-08-04T10:39:38.063Z,5.83
2018-08-04T10:40:41.375Z,5.30
2018-08-04T10:41:44.752Z,5.10
2018-08-04T10:42:48.068Z,5.50
2018-08-04T10:43:51.416Z,4.97
2018-08-04T10:44:54.723Z,4.90
2018-08-04T10:45:58.120Z,5.37
2018-08-04T10:47:01.170Z,5.20
2018-08-04T10:48:04.764Z,5.17
2018-08-04T10:49:08.112Z,5.33
2018-08-04T10:50:11.407Z,4.90
2018-08-04T10:51:14.772Z,5.33
2018-08-04T10:52:18.094Z,5.00
2018-08-04T10:53:21.419Z,5.43
2018-08-04T10:54:24.730Z,5.23
2018-08-04T10:55:28.738Z,5.07
2018-08-04T10:56:32.119Z,4.80
2018-08-04T10:57:35.430Z,5.00
2018-08-04T10:58:38.768Z,4.40
2018-08-04T10:59:42.090Z,5.00
2018-08-04T11:00:45.438Z,5.50
2018-08-04T11:01:48.816Z,5.47
2018-08-04T11:02:52.138Z,5.13
2018-08-04T11:03:55.504Z,5.33
2018-08-04T11:04:58.896Z,4.57
2018-08-04T11:06:02.235Z,4.77
2018-08-04T11:07:05.614Z,4.67
2018-08-04T11:08:08.951Z,5.23
2018-08-04T11:09:12.492Z,5.00
2018-08-04T11:10:15.801Z,4.97
2018-08-04T11:11:19.112Z,4.80
2018-08-04T11:12:22.497Z,5.30
2018-08-04T11:13:25.858Z,5.10
2018-08-04T11:14:29.198Z,4.80
2018-08-04T11:15:32.522Z,4.63
2018-08-04T11:16:36.050Z,5.27
2018-08-04T11:17:39.371Z,4.77
2018-08-04T11:18:42.719Z,5.00
2018-08-04T11:19:46.044Z,4.60
2018-08-04T11:20:49.363Z,4.50
2018-08-04T11:21:52.445Z,5.27
2018-08-04T11:22:56.350Z,4.50
2018-08-04T11:23:59.754Z,4.70
2018-08-04T11:25:03.114Z,4.23
2018-08-04T11:26:06.462Z,4.50
2018-08-04T11:27:09.770Z,5.10
2018-08-04T11:28:13.124Z,4.13
2018-08-04T11:29:16.431Z,5.00
2018-08-04T11:30:19.743Z,4.10
2018-08-04T11:31:23.083Z,5.00
2018-08-04T11:32:26.407Z,4.90
2018-08-04T11:33:29.742Z,4.70
2018-08-04T11:34:33.090Z,4.50
2018-08-04T11:35:36.399Z,4.47
2018-08-04T11:36:39.706Z,4.40
2018-08-04T11:37:43.131Z,4.70
2018-08-04T11:38:46.394Z,5.00
2018-08-04T11:39:49.710Z,4.57
2018-08-04T11:40:53.030Z,4.27
2018-08-04T11:41:56.344Z,4.60
2018-08-04T11:42:59.654Z,4.57
2018-08-04T11:44:02.967Z,4.60
2018-08-04T11:45:06.541Z,4.67
2018-08-04T11:46:10.069Z,4.40
2018-08-04T11:47:13.428Z,4.07
2018-08-04T11:48:16.748Z,4.40
2018-08-04T11:49:20.090Z,4.10
2018-08-04T11:50:23.471Z,4.13
2018-08-04T11:51:26.850Z,4.60
2018-08-04T11:52:30.179Z,4.10
2018-08-04T11:53:33.527Z,4.30
2018-08-04T11:54:36.879Z,5.37
2018-08-04T11:55:40.210Z,4.00
2018-08-04T11:56:43.537Z,4.63
2018-08-04T11:57:46.872Z,4.40
2018-08-04T11:58:50.253Z,5.13
2018-08-04T11:59:53.567Z,4.50
2018-08-04T12:00:56.947Z,4.40
2018-08-04T12:02:00.384Z,4.13
2018-08-04T12:03:03.735Z,4.50
2018-08-04T12:04:07.111Z,4.70
2018-08-04T12:05:10.532Z,5.10
2018-08-04T12:06:13.942Z,4.40
2018-08-04T12:07:17.436Z,5.20
2018-08-04T12:08:21.059Z,6.07
2018-08-04T12:09:24.858Z,5.10
2018-08-04T12:10:28.374Z,5.07
2018-08-04T12:12:41.315Z,5.10
2018-08-04T12:13:44.631Z,5.10
2018-08-04T12:14:48.069Z,5.20
2018-08-04T12:15:51.644Z,5.07
2018-08-04T12:16:55.421Z,4.40
2018-08-04T12:17:58.814Z,4.67
2018-08-04T12:19:02.234Z,5.33
2018-08-04T12:20:05.786Z,4.80
2018-08-04T12:21:09.107Z,4.73
2018-08-04T12:22:12.478Z,4.90
2018-08-04T12:23:15.819Z,4.83
2018-08-04T12:24:19.204Z,4.80
2018-08-04T12:25:22.597Z,5.30
2018-08-04T12:26:25.955Z,4.77
2018-08-04T12:27:29.331Z,4.80
2018-08-04T12:28:32.664Z,5.03
2018-08-04T12:29:35.991Z,4.40
2018-08-04T12:30:39.318Z,4.40
2018-08-04T12:31:42.638Z,4.80
2018-08-04T12:32:46.067Z,4.23
2018-08-04T12:33:49.406Z,5.00
2018-08-04T12:34:52.798Z,4.23
2018-08-04T12:35:56.110Z,4.23
2018-08-04T12:36:59.468Z,4.50
2018-08-04T12:38:02.893Z,5.47
2018-08-04T12:39:08.198Z,4.10
2018-08-04T12:40:11.523Z,4.63
2018-08-04T12:41:14.955Z,4.40
2018-08-04T12:42:18.420Z,4.43
2018-08-04T12:43:21.802Z,4.20
2018-08-04T12:44:25.154Z,4.83
2018-08-04T12:45:28.491Z,4.73
2018-08-04T12:46:31.816Z,4.67
2018-08-04T12:47:35.129Z,4.80
2018-08-04T12:48:38.482Z,4.00
2018-08-04T12:49:41.800Z,5.23
2018-08-04T12:50:45.135Z,4.73
2018-08-04T12:51:48.463Z,5.00
2018-08-04T12:52:58.650Z,4.77
2018-08-04T12:54:02.331Z,4.37
2018-08-04T12:55:05.730Z,5.20
2018-08-04T12:56:09.050Z,4.63
2018-08-04T12:57:12.368Z,4.60
2018-08-04T12:58:15.771Z,4.20
2018-08-04T12:59:19.143Z,4.47
2018-08-04T13:00:22.446Z,4.63
2018-08-04T13:01:25.758Z,4.20
2018-08-04T13:02:29.120Z,5.00
2018-08-04T13:03:32.447Z,4.27
2018-08-04T13:04:35.810Z,4.10
2018-08-04T13:05:39.139Z,4.60
2018-08-04T13:06:42.460Z,4.10
2018-08-04T13:07:45.899Z,4.27
2018-08-04T13:08:49.507Z,4.13
2018-08-04T13:09:52.896Z,3.93
2018-08-04T13:10:57.817Z,3.97
2018-08-04T13:12:00.891Z,3.93
2018-08-04T13:13:03.973Z,4.00
2018-08-04T13:14:07.141Z,4.30
2018-08-04T13:15:10.394Z,4.00
2018-08-04T13:16:13.469Z,4.33
2018-08-04T13:17:16.587Z,4.13
2018-08-04T13:18:19.638Z,4.80
2018-08-04T13:19:22.707Z,4.50
2018-08-04T13:20:25.750Z,4.10
2018-08-04T13:21:28.850Z,3.80
2018-08-04T13:22:32.023Z,3.70
2018-08-04T13:23:35.082Z,4.17
2018-08-04T13:24:38.129Z,4.30
2018-08-04T13:25:41.165Z,4.50
2018-08-04T13:26:44.246Z,4.07
2018-08-04T13:27:47.297Z,4.00
2018-08-04T13:28:50.614Z,4.57
2018-08-04T13:29:53.726Z,4.27
2018-08-04T13:31:03.411Z,4.60
2018-08-04T13:32:06.463Z,4.40
2018-08-04T13:33:09.504Z,4.30
2018-08-04T13:34:12.581Z,4.77
2018-08-04T13:35:15.618Z,4.80
2018-08-04T13:36:18.710Z,4.33
2018-08-04T13:37:21.804Z,3.80
2018-08-04T13:38:24.817Z,4.03
2018-08-04T13:39:27.988Z,4.50
2018-08-04T13:40:31.025Z,4.23
2018-08-04T13:41:34.102Z,4.50
2018-08-04T13:42:37.175Z,4.10
2018-08-04T13:43:40.256Z,3.90
2018-08-04T13:44:43.314Z,4.17
2018-08-04T13:45:46.384Z,4.07
2018-08-04T13:46:49.431Z,4.23
2018-08-04T13:47:52.469Z,5.10
2018-08-04T13:48:55.522Z,4.00
2018-08-04T13:49:58.587Z,4.37
2018-08-04T13:51:01.667Z,3.73
2018-08-04T13:52:04.731Z,4.03
2018-08-04T13:53:07.774Z,3.67
2018-08-04T13:54:10.819Z,4.00
2018-08-04T13:55:13.909Z,3.87
2018-08-04T13:56:16.953Z,4.00